createdAt,value
2022-10-23T00:01:44.995Z,11.30
2022-10-23T00:04:14.798Z,7.55
2022-10-23T00:06:43.266Z,4.40
2022-10-23T00:09:12.816Z,8.55
2022-10-23T00:11:41.494Z,13.93
2022-10-23T00:14:09.237Z,9.27
2022-10-23T00:16:36.173Z,9.23
2022-10-23T00:19:04.165Z,9.82
2022-10-23T00:21:32.693Z,11.80
2022-10-23T00:23:59.914Z,6.25
2022-10-23T00:26:26.980Z,13.77
2022-10-23T00:28:55.262Z,7.13
2022-10-23T00:31:23.568Z,11.18
2022-10-23T00:33:51.601Z,9.00
2022-10-23T00:36:20.796Z,7.55
2022-10-23T00:38:48.704Z,11.43
2022-10-23T00:41:19.389Z,10.45
2022-10-23T00:44:23.294Z,10.25
2022-10-23T00:46:50.186Z,6.75
2022-10-23T00:49:17.726Z,7.07
2022-10-23T00:51:50.687Z,9.32
2022-10-23T00:54:25.073Z,8.35
2022-10-23T00:56:56.177Z,11.00
2022-10-23T00:59:23.593Z,7.70
2022-10-23T01:01:50.452Z,9.15
2022-10-23T01:04:17.398Z,8.27
2022-10-23T01:06:50.974Z,11.02
2022-10-23T01:09:20.652Z,9.77
2022-10-23T01:11:55.847Z,5.05
2022-10-23T01:14:31.721Z,11.80
2022-10-23T01:17:11.868Z,6.75
2022-10-23T01:22:49.962Z,11.95
2022-10-23T01:25:19.329Z,6.20
2022-10-23T01:27:50.095Z,9.60
2022-10-23T01:30:18.006Z,6.68
2022-10-23T01:32:48.461Z,6.47
2022-10-23T01:35:22.263Z,7.22
2022-10-23T01:38:00.977Z,8.20
2022-10-23T01:40:53.974Z,12.60
2022-10-23T01:43:27.359Z,8.13
2022-10-23T01:45:59.542Z,9.70
2022-10-23T01:48:32.252Z,6.72
2022-10-23T01:51:05.545Z,15.15
2022-10-23T01:53:36.305Z,6.55
2022-10-23T01:56:07.376Z,7.65
2022-10-23T01:58:36.216Z,10.02
2022-10-23T02:01:06.230Z,12.60
2022-10-23T02:06:00.404Z,8.02
2022-10-23T02:08:28.034Z,11.27
2022-10-23T02:11:13.271Z,8.20
2022-10-23T02:13:49.545Z,11.23
2022-10-23T02:16:22.119Z,12.68
2022-10-23T02:19:02.718Z,9.77
2022-10-23T02:21:50.527Z,6.28
2022-10-23T02:24:24.573Z,15.20
2022-10-23T02:26:57.167Z,7.85
2022-10-23T02:29:33.003Z,5.55
2022-10-23T02:31:59.875Z,8.20
2022-10-23T02:34:26.928Z,6.30
2022-10-23T02:36:53.995Z,10.02
2022-10-23T02:39:25.318Z,16.27
2022-10-23T02:42:01.214Z,8.60
2022-10-23T02:44:48.100Z,8.23
2022-10-23T02:47:43.130Z,8.82
2022-10-23T02:50:33.350Z,8.23
2022-10-23T02:53:21.342Z,7.88
2022-10-23T02:56:08.833Z,13.75
2022-10-23T02:58:48.495Z,12.43
2022-10-23T03:01:20.135Z,10.70
2022-10-23T03:03:54.345Z,11.10
2022-10-23T03:06:22.902Z,8.13
2022-10-23T03:09:00.041Z,7.55
2022-10-23T03:11:26.990Z,10.88
2022-10-23T03:13:53.663Z,12.13
2022-10-23T03:16:20.530Z,11.52
2022-10-23T03:18:47.346Z,15.55
2022-10-23T03:21:14.063Z,13.05
2022-10-23T03:23:40.895Z,11.85
2022-10-23T03:26:07.914Z,11.48
2022-10-23T03:28:35.636Z,12.05
2022-10-23T03:31:03.146Z,15.73
2022-10-23T03:33:31.110Z,12.95
2022-10-23T03:35:57.939Z,13.75
2022-10-23T03:38:24.811Z,17.63
2022-10-23T03:40:51.585Z,15.55
2022-10-23T03:43:18.310Z,13.77
2022-10-23T03:45:45.092Z,17.27
2022-10-23T03:48:11.919Z,12.60
2022-10-23T03:50:38.610Z,15.75
2022-10-23T03:53:05.521Z,14.07
2022-10-23T03:55:32.417Z,14.25
2022-10-23T03:57:59.165Z,17.02
2022-10-23T04:00:26.001Z,21.67
2022-10-23T04:02:52.690Z,19.35
2022-10-23T04:05:19.401Z,17.92
2022-10-23T04:07:46.216Z,18.38
2022-10-23T04:10:13.034Z,18.45
2022-10-23T04:12:39.889Z,18.30
2022-10-23T04:15:07.397Z,19.10
2022-10-23T04:17:34.227Z,33.03
2022-10-23T04:20:00.944Z,23.85
2022-10-23T04:22:28.611Z,22.17
2022-10-23T04:24:55.851Z,23.60
2022-10-23T04:27:23.181Z,29.95
2022-10-23T04:29:50.579Z,43.38
2022-10-23T04:32:18.320Z,38.35
2022-10-23T04:34:45.029Z,32.88
2022-10-23T04:37:11.760Z,35.83
2022-10-23T04:39:38.479Z,47.97
2022-10-23T04:42:05.328Z,36.72
2022-10-23T04:44:32.058Z,24.38
2022-10-23T04:46:58.826Z,36.92
2022-10-23T04:49:25.618Z,33.25
2022-10-23T04:51:52.430Z,38.65
2022-10-23T04:54:19.108Z,37.10
2022-10-23T04:56:45.837Z,36.88
2022-10-23T04:59:12.678Z,29.02
2022-10-23T05:01:39.518Z,24.85
2022-10-23T05:04:06.321Z,31.63
2022-10-23T05:06:33.204Z,24.27
2022-10-23T05:09:00.009Z,19.83
2022-10-23T05:11:26.737Z,20.63
2022-10-23T05:13:53.587Z,19.13
2022-10-23T05:16:37.219Z,24.08
2022-10-23T05:19:07.247Z,32.78
2022-10-23T05:24:02.402Z,29.88
2022-10-23T05:26:31.595Z,35.45
2022-10-23T05:28:58.363Z,26.80
2022-10-23T05:31:25.986Z,31.35
2022-10-23T05:33:55.644Z,20.35
2022-10-23T05:36:24.226Z,34.00
2022-10-23T05:38:51.328Z,29.67
2022-10-23T05:41:18.420Z,25.42
2022-10-23T05:43:46.342Z,32.55
2022-10-23T05:46:13.311Z,35.25
2022-10-23T05:48:40.120Z,33.15
2022-10-23T05:51:09.249Z,39.88
2022-10-23T05:53:38.767Z,23.87
2022-10-23T05:56:09.670Z,33.75
2022-10-23T05:58:36.490Z,35.67
2022-10-23T06:01:11.223Z,31.80
2022-10-23T06:03:38.989Z,39.05
2022-10-23T06:06:07.401Z,29.48
2022-10-23T06:08:37.418Z,36.80
2022-10-23T06:13:38.487Z,21.10
2022-10-23T06:16:18.669Z,25.50
2022-10-23T06:18:46.721Z,27.95
2022-10-23T06:21:14.342Z,35.90
2022-10-23T06:23:42.229Z,14.68
2022-10-23T06:26:12.685Z,19.00
2022-10-23T06:28:39.945Z,20.55
2022-10-23T06:31:08.681Z,30.40
2022-10-23T06:33:36.005Z,24.38
2022-10-23T06:36:03.767Z,20.58
2022-10-23T06:38:36.718Z,23.50
2022-10-23T06:41:05.147Z,38.78
2022-10-23T06:43:31.870Z,27.55
2022-10-23T06:46:04.142Z,40.25
2022-10-23T06:48:32.007Z,22.23
2022-10-23T06:50:59.730Z,47.55
2022-10-23T06:53:26.653Z,46.78
2022-10-23T06:55:55.500Z,32.03
2022-10-23T06:58:22.464Z,32.10
2022-10-23T07:00:49.285Z,30.58
2022-10-23T07:03:16.117Z,23.10
2022-10-23T07:05:44.938Z,39.80
2022-10-23T07:08:11.875Z,39.17
2022-10-23T07:10:38.812Z,30.88
2022-10-23T07:13:05.575Z,20.15
2022-10-23T07:15:32.389Z,34.47
2022-10-23T07:17:59.085Z,41.05
2022-10-23T07:20:26.107Z,23.80
2022-10-23T07:22:54.804Z,28.65
2022-10-23T07:25:22.840Z,24.95
2022-10-23T07:27:50.384Z,34.05
2022-10-23T07:30:17.683Z,25.13
2022-10-23T07:32:44.896Z,16.50
2022-10-23T07:37:45.030Z,34.40
2022-10-23T07:40:12.700Z,25.05
2022-10-23T07:42:39.473Z,29.02
2022-10-23T07:45:09.013Z,21.70
2022-10-23T07:47:35.718Z,28.63
2022-10-23T07:50:02.487Z,26.83
2022-10-23T07:52:32.088Z,29.33
2022-10-23T07:55:02.002Z,30.60
2022-10-23T07:57:28.698Z,20.88
2022-10-23T07:59:55.516Z,18.55
2022-10-23T08:02:22.343Z,24.50
2022-10-23T08:04:50.271Z,19.23
2022-10-23T08:07:17.136Z,17.10
2022-10-23T08:09:43.856Z,15.27
2022-10-23T08:12:10.565Z,26.80
2022-10-23T08:14:39.254Z,25.90
2022-10-23T08:17:09.847Z,29.98
2022-10-23T08:19:37.022Z,22.15
2022-10-23T08:22:04.098Z,18.75
2022-10-23T08:24:31.246Z,25.17
2022-10-23T08:26:58.816Z,28.30
2022-10-23T08:29:25.780Z,35.00
2022-10-23T08:31:57.516Z,30.50
2022-10-23T08:34:24.526Z,26.45
2022-10-23T08:36:51.485Z,27.85
2022-10-23T08:39:18.246Z,16.70
2022-10-23T08:41:51.217Z,20.60
2022-10-23T08:44:40.508Z,43.35
2022-10-23T08:47:11.858Z,27.90
2022-10-23T08:49:52.246Z,32.78
2022-10-23T08:52:39.625Z,30.90
2022-10-23T08:55:15.385Z,45.92
2022-10-23T08:57:51.751Z,50.83
2022-10-23T09:00:19.516Z,32.28
2022-10-23T09:02:51.549Z,32.38
2022-10-23T09:05:50.800Z,21.20
2022-10-23T09:09:12.796Z,33.83
2022-10-23T09:11:50.945Z,38.92
2022-10-23T09:14:25.169Z,35.42
2022-10-23T09:17:07.171Z,33.55
2022-10-23T09:19:33.914Z,31.80
2022-10-23T09:22:01.249Z,36.80
2022-10-23T09:24:31.977Z,38.92
2022-10-23T09:27:01.129Z,44.63
2022-10-23T09:29:36.067Z,38.88
2022-10-23T09:32:05.833Z,19.63
2022-10-23T09:34:34.991Z,18.40
2022-10-23T09:37:21.502Z,19.40
2022-10-23T09:39:48.432Z,35.88
2022-10-23T09:42:25.060Z,27.63
2022-10-23T09:44:54.176Z,25.27
2022-10-23T09:47:24.456Z,19.83
2022-10-23T09:49:57.304Z,24.48
2022-10-23T09:52:28.414Z,34.53
2022-10-23T09:54:58.636Z,35.25
2022-10-23T09:57:42.853Z,23.98
2022-10-23T10:00:16.441Z,30.50
2022-10-23T10:02:54.914Z,28.88
2022-10-23T10:05:24.957Z,40.88
2022-10-23T10:10:34.994Z,41.50
2022-10-23T10:13:19.138Z,45.03
2022-10-23T10:15:55.466Z,33.38
2022-10-23T10:18:37.333Z,20.35
2022-10-23T10:21:14.051Z,16.38
2022-10-23T10:24:00.565Z,39.60
2022-10-23T10:26:45.544Z,31.73
2022-10-23T10:29:16.670Z,26.27
2022-10-23T10:32:02.217Z,31.02
2022-10-23T10:34:46.574Z,37.33
2022-10-23T10:37:29.742Z,29.80
2022-10-23T10:40:02.401Z,27.92
2022-10-23T10:42:50.170Z,30.13
2022-10-23T10:45:30.297Z,30.73
2022-10-23T10:48:15.760Z,22.73
2022-10-23T10:51:05.914Z,37.75
2022-10-23T10:53:47.826Z,54.28
2022-10-23T10:56:18.621Z,29.80
2022-10-23T10:58:59.582Z,42.88
2022-10-23T11:01:56.747Z,37.25
2022-10-23T11:04:41.163Z,36.33
2022-10-23T11:07:13.311Z,35.67
2022-10-23T11:09:41.746Z,34.42
2022-10-23T11:12:18.058Z,27.35
2022-10-23T11:14:45.340Z,17.58
2022-10-23T11:17:25.529Z,31.83
2022-10-23T11:20:04.314Z,25.75
2022-10-23T11:22:46.901Z,22.27
2022-10-23T11:25:35.169Z,24.38
2022-10-23T11:28:19.445Z,28.50
2022-10-23T11:31:12.344Z,21.85
2022-10-23T11:33:47.790Z,19.48
2022-10-23T11:36:41.379Z,19.00
2022-10-23T11:39:21.873Z,20.38
2022-10-23T11:41:56.185Z,18.00
2022-10-23T11:44:36.768Z,15.93
2022-10-23T11:47:37.961Z,23.33
2022-10-23T11:50:09.242Z,16.00
2022-10-23T11:52:45.700Z,18.38
2022-10-23T11:55:27.866Z,20.60
2022-10-23T11:58:24.274Z,20.15
2022-10-23T12:01:25.681Z,14.15
2022-10-23T12:04:00.938Z,16.35
2022-10-23T12:06:31.493Z,18.17
2022-10-23T12:09:03.697Z,14.07
2022-10-23T12:11:47.449Z,15.48
2022-10-23T12:14:36.445Z,14.70
2022-10-23T12:17:18.946Z,11.68
2022-10-23T12:19:51.688Z,16.23
2022-10-23T12:22:20.999Z,12.70
2022-10-23T12:24:53.790Z,13.48
2022-10-23T12:27:39.965Z,14.27
2022-10-23T12:30:14.808Z,16.65
2022-10-23T12:32:47.543Z,14.65
2022-10-23T12:35:47.801Z,14.77
2022-10-23T12:38:22.440Z,10.05
2022-10-23T12:40:55.585Z,14.27
2022-10-23T12:43:25.337Z,15.63
2022-10-23T12:45:53.027Z,9.90
2022-10-23T12:48:22.613Z,16.08
2022-10-23T12:50:55.175Z,13.10
2022-10-23T12:53:23.811Z,15.20
2022-10-23T12:58:32.943Z,14.88
2022-10-23T13:01:03.128Z,14.82
2022-10-23T13:03:32.069Z,15.30
2022-10-23T13:06:00.170Z,13.48
2022-10-23T13:08:33.914Z,17.63
2022-10-23T13:11:01.065Z,12.90
2022-10-23T13:13:28.249Z,21.38
2022-10-23T13:15:54.995Z,18.60
2022-10-23T13:18:21.871Z,17.27
2022-10-23T13:20:51.719Z,22.10
2022-10-23T13:26:03.373Z,21.55
2022-10-23T13:28:44.690Z,18.23
2022-10-23T13:31:12.509Z,17.63
2022-10-23T13:33:41.560Z,13.60
2022-10-23T13:36:14.149Z,21.30
2022-10-23T13:38:46.096Z,29.23
2022-10-23T13:41:18.318Z,25.40
2022-10-23T13:43:46.628Z,19.23
2022-10-23T13:46:18.354Z,15.88
2022-10-23T13:48:45.469Z,27.92
2022-10-23T13:51:14.717Z,24.50
2022-10-23T13:53:41.833Z,20.50
2022-10-23T13:56:12.000Z,19.60
2022-10-23T13:58:39.276Z,12.30
2022-10-23T14:01:07.333Z,18.02
2022-10-23T14:03:34.141Z,12.60
2022-10-23T14:06:01.470Z,18.83
2022-10-23T14:08:28.308Z,17.55
2022-10-23T14:10:55.001Z,15.30
2022-10-23T14:13:21.789Z,18.98
2022-10-23T14:15:54.613Z,21.90
2022-10-23T14:18:21.989Z,19.50
2022-10-23T14:20:49.221Z,17.83
2022-10-23T14:23:16.063Z,13.20
2022-10-23T14:25:42.798Z,16.73
2022-10-23T14:28:10.021Z,14.68
2022-10-23T14:30:39.508Z,19.10
2022-10-23T14:33:06.285Z,18.95
2022-10-23T14:35:33.016Z,27.38
2022-10-23T14:37:59.908Z,23.42
2022-10-23T14:40:26.620Z,18.05
2022-10-23T14:42:53.322Z,26.48
2022-10-23T14:45:20.210Z,20.15
2022-10-23T14:47:47.056Z,19.25
2022-10-23T14:50:14.220Z,25.20
2022-10-23T14:52:41.055Z,20.75
2022-10-23T14:55:08.264Z,19.13
2022-10-23T14:57:35.024Z,27.38
2022-10-23T15:00:01.936Z,12.25
2022-10-23T15:02:28.601Z,11.13
2022-10-23T15:04:55.573Z,36.20
2022-10-23T15:07:22.438Z,15.55
2022-10-23T15:09:50.783Z,21.48
2022-10-23T15:12:18.198Z,17.20
2022-10-23T15:14:45.010Z,26.75
2022-10-23T15:17:15.432Z,20.77
2022-10-23T15:19:42.787Z,33.08
2022-10-23T15:22:09.855Z,19.38
2022-10-23T15:24:36.760Z,21.35
2022-10-23T15:27:03.598Z,27.42
2022-10-23T15:29:30.384Z,19.13
2022-10-23T15:32:01.572Z,23.33
2022-10-23T15:34:29.396Z,16.40
2022-10-23T15:36:57.727Z,29.40
2022-10-23T15:39:27.737Z,16.23
2022-10-23T15:44:25.177Z,19.58
2022-10-23T15:46:52.257Z,21.88
2022-10-23T15:49:19.758Z,10.63
2022-10-23T15:51:47.023Z,12.82
2022-10-23T15:54:18.467Z,13.73
2022-10-23T15:56:47.382Z,17.90
2022-10-23T15:59:14.884Z,19.30
2022-10-23T16:01:41.843Z,12.82
2022-10-23T16:04:08.840Z,14.70
2022-10-23T16:06:35.664Z,20.92
2022-10-23T16:09:02.843Z,17.45
2022-10-23T16:11:33.905Z,20.33
2022-10-23T16:14:00.845Z,15.77
2022-10-23T16:16:28.347Z,13.73
2022-10-23T16:18:55.160Z,16.55
2022-10-23T16:21:28.112Z,20.42
2022-10-23T16:23:57.406Z,14.88
2022-10-23T16:26:24.157Z,20.70
2022-10-23T16:28:55.555Z,16.67
2022-10-23T16:31:24.043Z,12.65
2022-10-23T16:33:52.532Z,16.45
2022-10-23T16:36:20.743Z,22.35
2022-10-23T16:38:47.567Z,22.45
2022-10-23T16:41:14.372Z,13.00
2022-10-23T16:43:41.150Z,16.42
2022-10-23T16:46:13.026Z,12.60
2022-10-23T16:48:40.610Z,16.77
2022-10-23T16:51:09.523Z,18.58
2022-10-23T16:53:38.377Z,16.20
2022-10-23T16:56:07.361Z,13.40
2022-10-23T16:58:34.449Z,12.87
2022-10-23T17:01:02.635Z,16.30
2022-10-23T17:03:30.298Z,15.95
2022-10-23T17:06:01.958Z,19.17
2022-10-23T17:08:29.394Z,22.88
2022-10-23T17:11:18.035Z,19.63
2022-10-23T17:13:48.359Z,27.98
2022-10-23T17:16:16.966Z,24.02
2022-10-23T17:18:44.847Z,36.90
2022-10-23T17:21:13.497Z,19.15
2022-10-23T17:23:41.028Z,27.85
2022-10-23T17:26:12.467Z,16.60
2022-10-23T17:28:42.492Z,23.33
2022-10-23T17:34:12.642Z,28.70
2022-10-23T17:36:45.943Z,24.48
2022-10-23T17:39:15.731Z,7.28
2022-10-23T17:41:42.987Z,20.83
2022-10-23T17:44:10.844Z,17.98
2022-10-23T17:46:37.757Z,24.98
2022-10-23T17:49:05.274Z,20.15
2022-10-23T17:51:34.403Z,25.25
2022-10-23T17:54:06.478Z,12.00
2022-10-23T17:56:34.636Z,18.55
2022-10-23T17:59:05.230Z,20.02
2022-10-23T18:01:32.581Z,24.25
2022-10-23T18:04:01.558Z,25.20
2022-10-23T18:06:35.366Z,31.88
2022-10-23T18:09:04.206Z,25.10
2022-10-23T18:11:37.343Z,25.33
2022-10-23T18:14:06.350Z,35.03
2022-10-23T18:16:34.727Z,20.58
2022-10-23T18:19:02.239Z,22.75
2022-10-23T18:21:29.070Z,34.60
2022-10-23T18:23:58.013Z,22.52
2022-10-23T18:26:28.040Z,28.50
2022-10-23T18:31:25.932Z,26.98
2022-10-23T18:34:12.111Z,16.67
2022-10-23T18:36:40.758Z,18.13
2022-10-23T18:39:09.909Z,19.80
2022-10-23T18:41:40.101Z,19.95
2022-10-23T18:44:07.768Z,28.88
2022-10-23T18:46:35.489Z,16.42
2022-10-23T18:49:02.500Z,22.20
2022-10-23T18:51:32.803Z,18.15
2022-10-23T18:54:05.867Z,15.00
2022-10-23T18:56:34.225Z,16.23
2022-10-23T18:59:03.211Z,14.75
2022-10-23T19:01:31.012Z,18.83
2022-10-23T19:03:59.469Z,15.00
2022-10-23T19:06:26.202Z,20.00
2022-10-23T19:08:53.161Z,24.98
2022-10-23T19:11:21.852Z,18.20
2022-10-23T19:13:48.668Z,16.00
2022-10-23T19:16:19.855Z,14.85
2022-10-23T19:18:51.451Z,23.38
2022-10-23T19:21:22.273Z,12.05
2022-10-23T19:23:49.736Z,13.98
2022-10-23T19:26:16.905Z,13.48
2022-10-23T19:28:48.477Z,8.90
2022-10-23T19:31:15.465Z,13.25
2022-10-23T19:33:42.397Z,14.45
2022-10-23T19:36:13.840Z,15.23
2022-10-23T19:38:42.263Z,12.77
2022-10-23T19:41:09.667Z,9.05
2022-10-23T19:43:37.857Z,11.00
2022-10-23T19:46:09.255Z,14.70
2022-10-23T19:48:42.670Z,16.20
2022-10-23T19:51:09.616Z,10.98
2022-10-23T19:53:36.813Z,16.63
2022-10-23T19:56:05.710Z,13.20
2022-10-23T19:58:32.630Z,15.93
2022-10-23T20:00:59.700Z,15.32
2022-10-23T20:03:26.603Z,20.25
2022-10-23T20:05:53.323Z,13.00
2022-10-23T20:08:20.029Z,14.80
2022-10-23T20:10:48.192Z,11.15
2022-10-23T20:13:20.275Z,19.27
2022-10-23T20:15:47.502Z,15.73
2022-10-23T20:18:14.378Z,13.82
2022-10-23T20:20:42.370Z,13.00
2022-10-23T20:23:09.305Z,13.75
2022-10-23T20:25:36.116Z,7.93
2022-10-23T20:28:03.883Z,15.95
2022-10-23T20:30:30.738Z,8.07
2022-10-23T20:32:57.602Z,15.57
2022-10-23T20:35:24.374Z,13.02
2022-10-23T20:37:51.047Z,10.18
2022-10-23T20:40:17.799Z,12.27
2022-10-23T20:42:44.509Z,20.70
2022-10-23T20:45:11.241Z,15.95
2022-10-23T20:47:39.104Z,21.17
2022-10-23T20:50:06.283Z,10.98
2022-10-23T20:55:05.001Z,16.35
2022-10-23T20:57:31.738Z,18.52
2022-10-23T20:59:59.408Z,12.02
2022-10-23T21:02:26.484Z,16.73
2022-10-23T21:04:53.316Z,16.13
2022-10-23T21:07:20.987Z,14.43
2022-10-23T21:09:47.828Z,17.63
2022-10-23T21:12:14.636Z,7.72
2022-10-23T21:14:41.404Z,10.93
2022-10-23T21:17:09.158Z,9.13
2022-10-23T21:19:36.687Z,7.78
2022-10-23T21:22:03.666Z,16.98
2022-10-23T21:24:30.692Z,17.20
2022-10-23T21:26:57.408Z,13.02
2022-10-23T21:29:24.112Z,9.60
2022-10-23T21:31:56.788Z,14.45
2022-10-23T21:34:25.090Z,8.27
2022-10-23T21:37:12.845Z,7.80
2022-10-23T21:39:39.057Z,12.43
2022-10-23T21:42:06.003Z,13.13
2022-10-23T21:44:32.874Z,6.38
2022-10-23T21:47:00.849Z,8.20
2022-10-23T21:49:27.570Z,6.53
2022-10-23T21:51:55.234Z,10.23
2022-10-23T21:54:22.592Z,12.27
2022-10-23T21:56:51.219Z,7.40
2022-10-23T21:59:20.907Z,8.10
2022-10-23T22:01:49.361Z,9.18
2022-10-23T22:04:18.658Z,11.32
2022-10-23T22:06:47.176Z,17.25
2022-10-23T22:09:17.672Z,6.00
2022-10-23T22:11:44.451Z,4.30
2022-10-23T22:14:11.274Z,6.45
2022-10-23T22:16:38.232Z,14.40
2022-10-23T22:19:05.239Z,9.73
2022-10-23T22:21:31.999Z,12.10
2022-10-23T22:24:00.922Z,11.07
2022-10-23T22:26:29.597Z,12.37
2022-10-23T22:28:59.193Z,7.03
2022-10-23T22:31:29.213Z,6.15
2022-10-23T22:36:23.446Z,7.07
2022-10-23T22:38:50.426Z,9.30
2022-10-23T22:41:17.689Z,9.15
2022-10-23T22:43:44.736Z,16.15
2022-10-23T22:46:19.061Z,7.97
2022-10-23T22:48:46.132Z,9.95
2022-10-23T22:51:16.021Z,14.40
2022-10-23T22:53:44.047Z,7.38
2022-10-23T22:56:14.264Z,15.95
2022-10-23T22:58:41.189Z,9.48
2022-10-23T23:01:13.857Z,15.13
2022-10-23T23:03:40.843Z,10.27
2022-10-23T23:06:09.186Z,14.90
2022-10-23T23:08:37.928Z,10.82
2022-10-23T23:11:06.019Z,10.25
2022-10-23T23:13:32.862Z,21.30
2022-10-23T23:15:59.978Z,8.98
2022-10-23T23:18:27.425Z,17.70
2022-10-23T23:20:54.259Z,11.75
2022-10-23T23:23:21.365Z,10.27
2022-10-23T23:25:49.997Z,12.57
2022-10-23T23:28:20.574Z,7.43
2022-10-23T23:33:16.667Z,10.27
2022-10-23T23:35:46.036Z,9.35
2022-10-23T23:38:13.745Z,9.68
2022-10-23T23:40:40.557Z,11.55
2022-10-23T23:43:07.369Z,10.07
2022-10-23T23:45:34.261Z,6.85
2022-10-23T23:48:00.999Z,17.48
2022-10-23T23:50:28.165Z,9.13
2022-10-23T23:52:55.048Z,13.43
2022-10-23T23:55:22.006Z,9.98
2022-10-23T23:57:48.702Z,6.05
